Time;durP1;ratioP1;P1;durP2;ratioP2;P2;SDS_P1;SDS_P2;PMS_P1;PMS_P2;Temp;Humidity;BMP_temperature;BMP_pressure;BME280_temperature;BME280_humidity;BME280_pressure;Samples;Min_cycle;Max_cycle;Signal;HPM_P1;HPM_P2
2022/01/17 00:01:31;;;;;;;;;;;;;;;4.97;100.00;103129.69;5087286;28;19921;-75
2022/01/17 00:03:56;;;;;;;;;;;;;;;4.96;100.00;103139.75;5085173;28;19916;-74
2022/01/17 00:06:21;;;;;;;;;;;;;;;4.94;100.00;103142.19;5087013;28;19934;-74
2022/01/17 00:08:48;;;;;;;;;;;;;;;4.94;100.00;103148.94;5086864;28;20389;-74
2022/01/17 00:11:14;;;;;;;;;;;;;;;4.94;100.00;103148.94;5085989;28;19928;-74
2022/01/17 00:13:40;;;;;;;;;;;;;;;4.93;100.00;103144.63;5085605;28;19946;-74
2022/01/17 00:21:44;;;;;;;;;;;;;;;4.94;100.00;103151.50;5088857;28;19966;-75
2022/01/17 00:24:09;;;;;;;;;;;;;;;4.94;100.00;103151.50;5087306;28;19924;-74
2022/01/17 00:26:35;;;;;;;;;;;;;;;4.95;100.00;103155.84;5084949;28;20014;-74
2022/01/17 00:29:00;;;;;;;;;;;;;;;4.93;100.00;103147.16;5087252;28;19924;-74
2022/01/17 00:31:25;;;;;;;;;;;;;;;4.93;100.00;103139.50;5069562;28;19932;-75
2022/01/17 00:33:50;;;;;;;;;;;;;;;4.93;100.00;103137.84;5085804;28;19924;-75
2022/01/17 00:36:16;;;;;;;;;;;;;;;4.91;100.00;103136.81;5094836;28;19931;-75
2022/01/17 00:38:41;;;;;;;;;;;;;;;4.93;100.00;103144.63;5092886;28;20392;-76
2022/01/17 00:41:06;;;;;;;;;;;;;;;4.93;100.00;103144.63;5096776;28;19919;-75
2022/01/17 00:43:31;;;;;;;;;;;;;;;4.96;100.00;103147.41;5094173;28;20297;-74
2022/01/17 00:45:57;;;;;;;;;;;;;;;4.94;100.00;103149.84;5105816;28;19916;-75
2022/01/17 00:48:22;;;;;;;;;;;;;;;4.95;100.00;103153.28;5106920;28;19969;-74
2022/01/17 00:50:47;;;;;;;;;;;;;;;4.96;100.00;103155.06;5107748;28;19932;-74
2022/01/17 00:53:13;;;;;;;;;;;;;;;4.96;100.00;103149.97;5107252;28;19924;-74
2022/01/17 00:55:39;;;;;;;;;;;;;;;4.95;100.00;103156.72;5107552;28;20015;-74
2022/01/17 00:58:04;;;;;;;;;;;;;;;4.99;100.00;103155.34;5092825;28;20008;-74
2022/01/17 01:00:29;;;;;;;;;;;;;;;4.98;100.00;103162.09;5105388;28;20026;-73
2022/01/17 01:02:55;;;;;;;;;;;;;;;4.95;100.00;103153.28;5099775;28;19965;-74
2022/01/17 01:05:21;;;;;;;;;;;;;;;4.95;100.00;103151.63;5105902;28;20371;-73
2022/01/17 01:07:46;;;;;;;;;;;;;;;4.93;100.00;103162.47;5107504;28;19916;-73
2022/01/17 01:10:12;;;;;;;;;;;;;;;4.93;100.00;103168.44;5107134;28;19920;-73
2022/01/17 01:12:41;;;;;;;;;;;;;;;4.95;100.00;103178.78;5107301;28;19919;-73
2022/01/17 01:15:11;;;;;;;;;;;;;;;4.93;100.00;103176.09;5108177;28;19916;-74
2022/01/17 01:17:48;;;;;;;;;;;;;;;4.93;100.00;103168.44;5093117;28;19923;-74
2022/01/17 01:28:09;;;;;;;;;;;;;;;4.92;100.00;103161.56;5097379;28;20044;-73
2022/01/17 01:30:40;;;;;;;;;;;;;;;4.96;100.00;103155.97;5105357;28;20369;-74
2022/01/17 01:33:05;;;;;;;;;;;;;;;4.94;100.00;103154.06;5093900;28;20359;-74
2022/01/17 01:35:32;;;;;;;;;;;;;;;4.93;100.00;103155.72;5103490;28;20018;-74
2022/01/17 01:37:59;;;;;;;;;;;;;;;4.95;100.00;103158.38;5097160;28;19924;-74
2022/01/17 01:40:25;;;;;;;;;;;;;;;4.93;100.00;103158.25;5090141;28;19924;-74
2022/01/17 01:42:51;;;;;;;;;;;;;;;4.93;100.00;103171.00;5093701;28;19939;-74
2022/01/17 01:45:17;;;;;;;;;;;;;;;4.97;100.00;103177.25;5097265;28;19924;-74
2022/01/17 01:47:42;;;;;;;;;;;;;;;4.89;100.00;103178.25;5106370;28;19935;-74
2022/01/17 01:50:09;;;;;;;;;;;;;;;4.79;100.00;103190.19;5107785;28;19966;-74
2022/01/17 01:52:35;;;;;;;;;;;;;;;4.66;100.00;103178.75;5104917;28;19954;-73
2022/01/17 01:55:00;;;;;;;;;;;;;;;4.54;100.00;103171.81;5106174;28;19951;-74
2022/01/17 01:57:25;;;;;;;;;;;;;;;4.43;100.00;103163.97;5104733;28;19915;-74
2022/01/17 01:59:52;;;;;;;;;;;;;;;4.35;100.00;103170.91;5104255;28;19967;-76
2022/01/17 02:02:17;;;;;;;;;;;;;;;4.32;100.00;103190.16;5104772;28;20011;-74
2022/01/17 02:04:43;;;;;;;;;;;;;;;4.22;100.00;103185.84;5105923;28;20038;-74
2022/01/17 02:07:09;;;;;;;;;;;;;;;4.11;100.00;103195.06;5106198;28;19928;-74
2022/01/17 02:09:34;;;;;;;;;;;;;;;4.04;100.00;103192.72;5103247;28;19931;-74
2022/01/17 02:11:59;;;;;;;;;;;;;;;3.94;100.00;103188.44;5105077;28;19926;-73
2022/01/17 02:14:25;;;;;;;;;;;;;;;3.86;100.00;103180.84;5093845;28;19966;-73
2022/01/17 02:16:51;;;;;;;;;;;;;;;3.80;100.00;103187.91;5106545;28;19964;-74
2022/01/17 02:19:21;;;;;;;;;;;;;;;3.74;100.00;103189.13;5106697;28;19960;-74
2022/01/17 02:21:47;;;;;;;;;;;;;;;3.64;100.00;103185.59;5095624;28;20372;-74
2022/01/17 02:24:16;;;;;;;;;;;;;;;3.64;100.00;103188.13;5108227;28;19924;-74
2022/01/17 02:26:43;;;;;;;;;;;;;;;3.58;100.00;103185.03;5103513;28;19916;-73
2022/01/17 02:29:08;;;;;;;;;;;;;;;3.55;100.00;103169.50;5096017;28;20308;-74
2022/01/17 02:31:34;;;;;;;;;;;;;;;3.53;100.00;103178.63;5104831;28;19920;-74
2022/01/17 02:34:01;;;;;;;;;;;;;;;3.48;100.00;103188.38;5103730;28;19923;-74
2022/01/17 02:36:27;;;;;;;;;;;;;;;3.45;100.00;103194.06;5090728;28;19930;-73
2022/01/17 02:38:52;;;;;;;;;;;;;;;3.37;100.00;103189.00;5093246;28;19919;-74
2022/01/17 02:41:17;;;;;;;;;;;;;;;3.38;100.00;103185.72;5106166;28;19916;-74
2022/01/17 02:43:43;;;;;;;;;;;;;;;3.33;100.00;103179.28;5105593;28;19928;-74
2022/01/17 02:48:35;;;;;;;;;;;;;;;3.23;100.00;103192.81;5090847;28;19924;-73
2022/01/17 02:51:02;;;;;;;;;;;;;;;3.15;100.00;103189.50;5106069;28;19923;-74
2022/01/17 02:53:27;;;;;;;;;;;;;;;3.14;100.00;103207.16;5097071;28;19943;-74
2022/01/17 02:56:00;;;;;;;;;;;;;;;3.07;100.00;103192.97;5104796;28;19920;-74
2022/01/17 02:58:26;;;;;;;;;;;;;;;3.07;100.00;103199.72;5105313;28;19923;-74
2022/01/17 03:00:52;;;;;;;;;;;;;;;3.05;100.00;103194.50;5102870;28;19920;-74
2022/01/17 03:03:19;;;;;;;;;;;;;;;3.03;100.00;103200.16;5104110;28;19959;-74
2022/01/17 03:05:45;;;;;;;;;;;;;;;3.02;100.00;103203.47;5094114;28;19924;-74
2022/01/17 03:08:11;;;;;;;;;;;;;;;3.00;100.00;103188.06;5095701;28;20338;-74
2022/01/17 03:10:39;;;;;;;;;;;;;;;3.00;100.00;103193.16;5091321;28;19931;-74
2022/01/17 03:13:26;;;;;;;;;;;;;;;3.00;100.00;103195.69;5095586;28;19927;-74
2022/01/17 03:15:59;;;;;;;;;;;;;;;2.98;100.00;103191.22;5098865;28;20383;-74
2022/01/17 03:18:26;;;;;;;;;;;;;;;2.98;100.00;103169.25;5088191;28;19927;-74
2022/01/17 03:20:52;;;;;;;;;;;;;;;2.94;100.00;103174.78;5105133;28;19969;-74
2022/01/17 03:23:17;;;;;;;;;;;;;;;2.95;100.00;103179.09;5105045;28;19928;-74
2022/01/17 03:25:42;;;;;;;;;;;;;;;2.95;100.00;103176.56;5074847;28;19924;-74
2022/01/17 03:28:08;;;;;;;;;;;;;;;2.98;100.00;103181.06;5090624;28;20316;-74
2022/01/17 03:30:33;;;;;;;;;;;;;;;2.99;100.00;103183.75;5095316;28;19935;-74
2022/01/17 03:33:00;;;;;;;;;;;;;;;2.97;100.00;103185.22;5105499;28;20018;-74
2022/01/17 03:35:25;;;;;;;;;;;;;;;2.96;100.00;103196.13;5094866;28;19941;-74
2022/01/17 03:37:50;;;;;;;;;;;;;;;2.94;100.00;103190.03;5092593;28;20007;-74
2022/01/17 03:40:15;;;;;;;;;;;;;;;2.87;100.00;103193.63;5107924;28;19920;-74
2022/01/17 03:42:41;;;;;;;;;;;;;;;2.81;100.00;103194.69;5113622;27;19924;-74
2022/01/17 03:45:09;;;;;;;;;;;;;;;2.74;100.00;103192.31;5104991;28;19944;-73
2022/01/17 03:47:35;;;;;;;;;;;;;;;2.72;100.00;103197.22;5074033;28;19969;-74
2022/01/17 03:50:01;;;;;;;;;;;;;;;2.68;100.00;103188.41;5106035;28;19928;-73
2022/01/17 03:52:26;;;;;;;;;;;;;;;2.67;100.00;103190.81;5091205;28;19974;-75
2022/01/17 03:54:51;;;;;;;;;;;;;;;2.64;100.00;103185.44;5091538;28;20006;-74
2022/01/17 03:57:16;;;;;;;;;;;;;;;2.63;100.00;103178.56;5107588;28;19916;-74
2022/01/17 03:59:42;;;;;;;;;;;;;;;2.60;100.00;103184.22;5087660;28;19927;-74
2022/01/17 04:02:07;;;;;;;;;;;;;;;2.58;100.00;103187.38;5091639;28;20493;-74
2022/01/17 04:04:32;;;;;;;;;;;;;;;2.55;100.00;103194.69;5105358;28;20370;-74
2022/01/17 04:06:57;;;;;;;;;;;;;;;2.53;100.00;103194.53;5074099;28;19920;-74
2022/01/17 04:09:23;;;;;;;;;;;;;;;2.50;100.00;103189.16;5105337;28;19952;-74
2022/01/17 04:11:48;;;;;;;;;;;;;;;2.55;100.00;103189.59;5102537;28;20002;-74
2022/01/17 04:14:16;;;;;;;;;;;;;;;2.62;100.00;103186.94;5106933;28;19920;-74
2022/01/17 04:16:41;;;;;;;;;;;;;;;2.69;100.00;103200.38;5105650;28;20798;-73
2022/01/17 04:19:06;;;;;;;;;;;;;;;2.77;100.00;103196.00;5103775;28;20002;-74
2022/01/17 04:21:35;;;;;;;;;;;;;;;2.81;100.00;103194.69;5095045;28;19954;-74
2022/01/17 04:24:00;;;;;;;;;;;;;;;2.80;100.00;103198.88;5088762;28;19998;-74
2022/01/17 04:26:25;;;;;;;;;;;;;;;2.76;100.00;103200.97;5102975;28;20376;-74
2022/01/17 04:28:51;;;;;;;;;;;;;;;2.68;100.00;103212.94;5102994;28;20438;-74
2022/01/17 04:31:16;;;;;;;;;;;;;;;2.62;100.00;103210.69;5092646;28;19923;-74
2022/01/17 04:33:41;;;;;;;;;;;;;;;2.56;100.00;103204.13;5105070;28;19920;-74
2022/01/17 04:36:08;;;;;;;;;;;;;;;2.53;100.00;103199.63;5102768;28;19924;-75
2022/01/17 04:38:34;;;;;;;;;;;;;;;2.49;100.00;103207.69;5087587;28;20443;-74
2022/01/17 04:41:05;;;;;;;;;;;;;;;2.44;100.00;103201.28;5103167;28;20002;-74
2022/01/17 04:46:03;;;;;;;;;;;;;;;2.39;100.00;103197.38;5105173;28;19956;-74
2022/01/17 04:48:28;;;;;;;;;;;;;;;2.40;100.00;103197.53;5103991;28;19930;-74
2022/01/17 04:50:53;;;;;;;;;;;;;;;2.37;100.00;103201.41;5104698;28;20256;-74
2022/01/17 04:53:20;;;;;;;;;;;;;;;2.35;100.00;103195.28;5090912;28;19946;-74
2022/01/17 04:55:46;;;;;;;;;;;;;;;2.29;100.00;103204.81;5090892;28;19928;-74
2022/01/17 04:58:12;;;;;;;;;;;;;;;2.21;100.00;103216.78;5104917;28;19951;-74
2022/01/17 05:00:39;;;;;;;;;;;;;;;2.23;100.00;103222.00;5088540;28;20022;-74
2022/01/17 05:03:04;;;;;;;;;;;;;;;2.18;100.00;103215.56;5103434;28;19977;-75
2022/01/17 05:05:30;;;;;;;;;;;;;;;2.15;100.00;103219.59;5106063;28;19923;-74
2022/01/17 05:07:55;;;;;;;;;;;;;;;2.13;100.00;103231.25;5105100;28;19954;-74
2022/01/17 05:10:22;;;;;;;;;;;;;;;2.09;100.00;103234.22;5101632;28;19931;-74
2022/01/17 05:12:47;;;;;;;;;;;;;;;2.06;100.00;103233.94;5089176;28;20027;-74
2022/01/17 05:15:36;;;;;;;;;;;;;;;2.05;100.00;103234.63;5088639;28;20010;-74
2022/01/17 05:20:46;;;;;;;;;;;;;;;2.11;100.00;103235.25;5092811;28;20360;-74
2022/01/17 05:23:11;;;;;;;;;;;;;;;2.20;100.00;103240.38;5095234;28;20010;-74
2022/01/17 05:25:37;;;;;;;;;;;;;;;2.33;100.00;103238.28;5096465;28;19923;-74
2022/01/17 05:28:02;;;;;;;;;;;;;;;2.40;100.00;103238.16;5107160;28;19932;-74
2022/01/17 05:30:28;;;;;;;;;;;;;;;2.47;100.00;103229.50;5093896;28;20030;-74
2022/01/17 05:32:53;;;;;;;;;;;;;;;2.49;100.00;103233.09;5117185;27;19931;-74
2022/01/17 05:35:19;;;;;;;;;;;;;;;2.42;100.00;103243.38;5106765;28;19955;-74
2022/01/17 05:37:46;;;;;;;;;;;;;;;2.37;100.00;103245.47;5089829;28;19951;-74
2022/01/17 05:40:12;;;;;;;;;;;;;;;2.33;100.00;103252.63;5104874;28;19915;-74
2022/01/17 05:42:38;;;;;;;;;;;;;;;2.32;100.00;103251.75;5098420;28;19980;-74
2022/01/17 05:45:04;;;;;;;;;;;;;;;2.33;100.00;103252.63;5093403;28;19931;-74
2022/01/17 05:47:29;;;;;;;;;;;;;;;2.29;100.00;103253.97;5105137;28;19923;-74
2022/01/17 05:49:55;;;;;;;;;;;;;;;2.25;100.00;103249.34;5089942;28;19972;-75
2022/01/17 05:52:20;;;;;;;;;;;;;;;2.23;100.00;103244.84;5094197;28;19939;-74
2022/01/17 05:54:45;;;;;;;;;;;;;;;2.19;100.00;103242.75;5090853;28;20394;-74
2022/01/17 05:57:11;;;;;;;;;;;;;;;2.18;100.00;103244.38;5095745;28;20428;-74
2022/01/17 05:59:36;;;;;;;;;;;;;;;2.26;100.00;103240.09;5106196;28;19916;-74
2022/01/17 06:02:01;;;;;;;;;;;;;;;2.30;100.00;103244.69;5091368;28;20300;-75
2022/01/17 06:04:27;;;;;;;;;;;;;;;2.32;100.00;103253.38;5095004;28;19916;-75
2022/01/17 06:06:52;;;;;;;;;;;;;;;2.37;100.00;103252.19;5094616;28;19972;-74
2022/01/17 06:09:17;;;;;;;;;;;;;;;2.41;100.00;103242.47;5092763;28;19931;-74
2022/01/17 06:11:42;;;;;;;;;;;;;;;2.46;100.00;103245.47;5092212;28;19931;-74
2022/01/17 06:14:09;;;;;;;;;;;;;;;2.48;100.00;103253.25;5090892;28;19961;-74
2022/01/17 06:16:36;;;;;;;;;;;;;;;2.45;100.00;103255.50;5106250;28;20348;-75
2022/01/17 06:19:01;;;;;;;;;;;;;;;2.43;100.00;103250.28;5090402;28;20296;-75
2022/01/17 06:21:27;;;;;;;;;;;;;;;2.41;100.00;103246.66;5107213;28;19927;-74
2022/01/17 06:23:55;;;;;;;;;;;;;;;2.39;100.00;103241.44;5095160;28;20534;-74
2022/01/17 06:26:20;;;;;;;;;;;;;;;2.35;100.00;103254.56;5106026;28;19980;-74
2022/01/17 06:28:46;;;;;;;;;;;;;;;2.33;100.00;103263.69;5093966;28;19915;-74
2022/01/17 06:31:11;;;;;;;;;;;;;;;2.35;100.00;103274.88;5105916;28;20540;-74
2022/01/17 06:33:36;;;;;;;;;;;;;;;2.32;100.00;103271.16;5106199;28;19995;-75
2022/01/17 06:36:02;;;;;;;;;;;;;;;2.32;100.00;103273.69;5103811;28;19930;-74
2022/01/17 06:38:27;;;;;;;;;;;;;;;2.29;100.00;103269.19;5104993;28;19940;-74
2022/01/17 06:40:54;;;;;;;;;;;;;;;2.31;100.00;103269.38;5090696;28;19943;-74
2022/01/17 06:43:19;;;;;;;;;;;;;;;2.37;100.00;103275.94;5096193;28;20307;-74
2022/01/17 06:45:45;;;;;;;;;;;;;;;2.41;100.00;103274.59;5094797;28;19919;-74
2022/01/17 06:48:11;;;;;;;;;;;;;;;2.44;100.00;103259.69;5096586;28;20010;-74
2022/01/17 06:50:36;;;;;;;;;;;;;;;2.41;100.00;103266.97;5110055;27;20014;-74
2022/01/17 06:53:02;;;;;;;;;;;;;;;2.41;100.00;103270.41;5108274;27;19928;-73
2022/01/17 06:55:27;;;;;;;;;;;;;;;2.49;100.00;103280.41;5108043;27;19915;-74
2022/01/17 06:57:52;;;;;;;;;;;;;;;2.54;100.00;103297.03;5108153;27;19927;-73
2022/01/17 07:00:18;;;;;;;;;;;;;;;2.49;100.00;103296.59;5107406;27;19926;-74
2022/01/17 07:02:43;;;;;;;;;;;;;;;2.40;100.00;103296.56;5106532;28;20003;-74
2022/01/17 07:05:08;;;;;;;;;;;;;;;2.40;100.00;103293.13;5109038;28;19980;-74
2022/01/17 07:07:34;;;;;;;;;;;;;;;2.40;100.00;103290.56;5109811;28;19998;-75
2022/01/17 07:09:59;;;;;;;;;;;;;;;2.39;100.00;103312.53;5109004;28;20006;-74
2022/01/17 07:12:24;;;;;;;;;;;;;;;2.37;100.00;103308.06;5094879;28;19924;-73
2022/01/17 07:14:50;;;;;;;;;;;;;;;2.31;100.00;103299.84;5098629;28;19926;-74
2022/01/17 07:17:15;;;;;;;;;;;;;;;2.26;100.00;103276.50;5105940;28;19924;-75
2022/01/17 07:19:40;;;;;;;;;;;;;;;2.25;100.00;103279.81;5094737;28;20416;-76
2022/01/17 07:22:06;;;;;;;;;;;;;;;2.28;100.00;103277.56;5115542;28;20007;-75
2022/01/17 07:24:32;;;;;;;;;;;;;;;2.32;100.00;103271.16;5095394;28;19954;-76
2022/01/17 07:26:57;;;;;;;;;;;;;;;2.33;100.00;103267.88;5094803;28;19927;-76
2022/01/17 07:29:24;;;;;;;;;;;;;;;2.34;100.00;103270.56;5107229;28;20333;-76
2022/01/17 07:31:49;;;;;;;;;;;;;;;2.30;100.00;103286.22;5088055;28;20415;-74
2022/01/17 07:34:14;;;;;;;;;;;;;;;2.28;100.00;103289.34;5103281;28;20010;-75
2022/01/17 07:36:40;;;;;;;;;;;;;;;2.26;100.00;103290.84;5088659;28;19980;-74
2022/01/17 07:39:05;;;;;;;;;;;;;;;2.25;100.00;103300.13;5089597;28;19928;-74
2022/01/17 07:41:30;;;;;;;;;;;;;;;2.25;100.00;103311.91;5105705;28;19939;-75
2022/01/17 07:43:56;;;;;;;;;;;;;;;2.29;100.00;103316.53;5090794;28;19931;-75
2022/01/17 07:51:27;;;;;;;;;;;;;;;2.27;100.00;103321.47;5106836;28;19966;-74
2022/01/17 07:53:53;;;;;;;;;;;;;;;2.26;100.00;103323.84;5089462;28;19988;-75
2022/01/17 07:56:19;;;;;;;;;;;;;;;2.26;100.00;103323.84;5088497;28;19963;-75
2022/01/17 07:58:44;;;;;;;;;;;;;;;2.32;100.00;103330.44;5066529;28;20020;-75
2022/01/17 08:01:10;;;;;;;;;;;;;;;2.36;100.00;103331.63;5089666;28;19947;-76
2022/01/17 08:03:35;;;;;;;;;;;;;;;2.49;100.00;103333.75;5105676;28;19930;-75
2022/01/17 08:06:01;;;;;;;;;;;;;;;2.55;100.00;103327.69;5105869;28;19920;-75
2022/01/17 08:08:26;;;;;;;;;;;;;;;2.56;100.00;103341.28;5088830;28;20308;-75
2022/01/17 08:10:51;;;;;;;;;;;;;;;2.52;100.00;103342.59;5095024;28;20388;-77
2022/01/17 08:13:18;;;;;;;;;;;;;;;2.56;100.00;103334.53;5096546;28;19960;-75
2022/01/17 08:15:45;;;;;;;;;;;;;;;2.69;100.00;103344.28;5096788;28;19927;-76
2022/01/17 08:18:10;;;;;;;;;;;;;;;2.90;100.00;103343.84;5105281;28;19916;-75
2022/01/17 08:20:36;;;;;;;;;;;;;;;3.07;100.00;103353.13;5108982;28;19919;-75
2022/01/17 08:23:01;;;;;;;;;;;;;;;3.18;100.00;103355.06;5092255;28;19920;-76
2022/01/17 08:25:27;;;;;;;;;;;;;;;3.25;100.00;103355.69;5094609;28;19924;-75
2022/01/17 08:27:58;;;;;;;;;;;;;;;3.27;100.00;103349.97;5088770;28;20326;-76
2022/01/17 08:30:24;;;;;;;;;;;;;;;3.34;100.00;103341.31;5082976;28;19920;-76
2022/01/17 08:32:51;;;;;;;;;;;;;;;3.44;100.00;103357.59;5087860;28;19916;-75
2022/01/17 08:35:16;;;;;;;;;;;;;;;3.52;100.00;103363.44;5103735;28;19919;-76
2022/01/17 08:37:42;;;;;;;;;;;;;;;3.60;100.00;103352.34;5068462;28;19924;-77
2022/01/17 08:40:08;;;;;;;;;;;;;;;3.62;100.00;103350.84;5086084;28;19965;-76
2022/01/17 08:42:36;;;;;;;;;;;;;;;3.65;100.00;103343.50;5080945;28;20530;-74
2022/01/17 08:45:02;;;;;;;;;;;;;;;3.71;100.00;103339.00;5083061;28;20360;-76
2022/01/17 08:47:27;;;;;;;;;;;;;;;3.75;100.00;103335.97;5082057;28;20304;-76
2022/01/17 08:49:53;;;;;;;;;;;;;;;3.80;100.00;103335.53;5086785;28;19923;-77
2022/01/17 08:52:19;;;;;;;;;;;;;;;3.86;100.00;103334.44;5086130;28;19955;-77
2022/01/17 08:54:44;;;;;;;;;;;;;;;3.91;100.00;103342.53;5085893;28;19927;-77
2022/01/17 08:57:10;;;;;;;;;;;;;;;3.93;100.00;103341.91;5086470;28;19920;-78
2022/01/17 08:59:35;;;;;;;;;;;;;;;3.97;100.00;103356.72;5081780;28;20427;-76
2022/01/17 09:02:00;;;;;;;;;;;;;;;4.04;100.00;103348.91;5070312;28;20300;-75
2022/01/17 09:04:25;;;;;;;;;;;;;;;4.09;100.00;103351.00;5083613;28;19924;-76
2022/01/17 09:06:51;;;;;;;;;;;;;;;4.11;100.00;103362.22;5081011;28;19920;-77
2022/01/17 09:09:16;;;;;;;;;;;;;;;4.13;100.00;103356.53;5079803;28;19920;-77
2022/01/17 09:11:42;;;;;;;;;;;;;;;4.18;100.00;103367.13;5082894;28;20408;-76
2022/01/17 09:14:08;;;;;;;;;;;;;;;4.21;100.00;103373.41;5087485;28;19920;-77
2022/01/17 09:16:33;;;;;;;;;;;;;;;4.30;100.00;103369.16;5086464;28;19916;-76
2022/01/17 09:19:00;;;;;;;;;;;;;;;4.39;100.00;103386.09;5084245;28;19951;-77
2022/01/17 09:21:26;;;;;;;;;;;;;;;4.54;100.00;103384.94;5087819;28;19928;-77
2022/01/17 09:23:53;;;;;;;;;;;;;;;4.71;100.00;103389.06;5062242;28;19920;-76
2022/01/17 09:26:21;;;;;;;;;;;;;;;4.78;100.00;103393.94;5084840;28;19920;-76
2022/01/17 09:28:47;;;;;;;;;;;;;;;4.80;100.00;103403.56;5085828;28;19924;-76
2022/01/17 09:31:13;;;;;;;;;;;;;;;4.80;100.00;103395.91;5084913;28;19973;-75
2022/01/17 09:33:38;;;;;;;;;;;;;;;4.77;100.00;103390.50;5086107;28;20455;-76
2022/01/17 09:36:03;;;;;;;;;;;;;;;4.77;100.00;103387.97;5086640;28;19981;-77
2022/01/17 09:38:29;;;;;;;;;;;;;;;4.80;100.00;103393.34;5107654;28;19922;-78
2022/01/17 09:40:54;;;;;;;;;;;;;;;4.78;100.00;103382.09;5105153;28;20815;-76
2022/01/17 09:43:19;;;;;;;;;;;;;;;4.76;100.00;103391.28;5091100;28;19928;-76
2022/01/17 09:45:44;;;;;;;;;;;;;;;4.77;100.00;103405.81;5106961;27;19916;-77
2022/01/17 09:48:18;;;;;;;;;;;;;;;4.75;100.00;103411.53;5106952;28;19971;-76
2022/01/17 09:51:00;;;;;;;;;;;;;;;4.81;100.00;103425.72;5093303;28;19916;-76
2022/01/17 09:53:28;;;;;;;;;;;;;;;4.83;100.00;103429.31;5090275;28;19942;-75
2022/01/17 09:55:55;;;;;;;;;;;;;;;4.86;100.00;103441.47;5104907;28;20317;-75
2022/01/17 09:58:22;;;;;;;;;;;;;;;4.87;100.00;103432.16;5108057;28;20338;-76
2022/01/17 10:00:47;;;;;;;;;;;;;;;4.88;100.00;103447.59;5103704;28;20304;-76
2022/01/17 10:03:16;;;;;;;;;;;;;;;4.91;100.00;103454.59;5107875;27;19916;-76
2022/01/17 10:05:41;;;;;;;;;;;;;;;4.96;100.00;103432.97;5105752;28;19922;-76
2022/01/17 10:08:08;;;;;;;;;;;;;;;4.96;100.00;103427.88;5089653;28;19916;-76
2022/01/17 10:10:36;;;;;;;;;;;;;;;5.01;100.00;103441.97;5085351;28;20442;-76
2022/01/17 10:13:23;;;;;;;;;;;;;;;5.01;100.00;103432.66;5105255;28;19923;-76
2022/01/17 10:16:15;;;;;;;;;;;;;;;5.03;100.00;103437.88;5107282;28;19965;-76
2022/01/17 10:18:46;;;;;;;;;;;;;;;5.09;100.00;103433.34;5083505;28;19923;-76
2022/01/17 10:21:27;;;;;;;;;;;;;;;5.09;100.00;103443.53;5105570;28;19928;-75
2022/01/17 10:34:57;;;;;;;;;;;;;;;5.31;100.00;103443.84;5110749;27;20414;-75
2022/01/17 10:37:25;;;;;;;;;;;;;;;5.38;100.00;103448.75;5107905;28;19947;-75
2022/01/17 10:39:51;;;;;;;;;;;;;;;5.45;100.00;103452.75;5108602;28;19922;-75
2022/01/17 10:42:23;;;;;;;;;;;;;;;5.50;100.00;103449.84;5105079;28;19964;-75
2022/01/17 10:44:49;;;;;;;;;;;;;;;5.54;100.00;103457.03;5076147;27;19939;-75
2022/01/17 10:47:19;;;;;;;;;;;;;;;5.60;100.00;103451.56;5093168;28;20384;-75
2022/01/17 10:49:48;;;;;;;;;;;;;;;5.65;100.00;103450.34;5119974;27;20050;-75
2022/01/17 10:52:25;;;;;;;;;;;;;;;5.67;100.00;103443.69;5109311;28;19927;-77
2022/01/17 10:54:54;;;;;;;;;;;;;;;5.69;100.00;103448.94;5089366;28;19927;-76
2022/01/17 10:57:19;;;;;;;;;;;;;;;5.71;100.00;103463.66;5111137;28;19919;-79
2022/01/17 10:59:44;;;;;;;;;;;;;;;5.72;100.00;103452.66;5093742;28;19926;-76
2022/01/17 11:02:10;;;;;;;;;;;;;;;5.77;100.00;103466.75;5087561;28;19943;-76
2022/01/17 11:04:38;;;;;;;;;;;;;;;5.85;100.00;103472.53;5110063;27;19916;-76
2022/01/17 11:07:05;;;;;;;;;;;;;;;5.82;100.00;103469.69;5110408;27;20340;-77
2022/01/17 11:10:00;;;;;;;;;;;;;;;5.84;100.00;103478.41;5090946;27;20265;-76
2022/01/17 11:12:28;;;;;;;;;;;;;;;5.88;100.00;103488.09;5108964;28;19930;-77
2022/01/17 11:14:55;;;;;;;;;;;;;;;5.91;100.00;103494.44;5107087;28;20337;-76
2022/01/17 11:17:24;;;;;;;;;;;;;;;5.98;100.00;103482.19;5092086;28;19915;-76
2022/01/17 11:20:07;;;;;;;;;;;;;;;6.00;100.00;103484.13;5077881;28;20111;-77
2022/01/17 11:22:37;;;;;;;;;;;;;;;6.08;100.00;103482.25;5095171;27;20014;-76
2022/01/17 11:25:04;;;;;;;;;;;;;;;6.11;100.00;103474.84;5110682;27;20008;-77
2022/01/17 11:27:29;;;;;;;;;;;;;;;6.15;100.00;103469.25;5109274;28;19924;-77
2022/01/17 11:29:55;;;;;;;;;;;;;;;6.20;100.00;103467.09;5108750;27;19927;-77
2022/01/17 11:32:22;;;;;;;;;;;;;;;6.25;100.00;103453.97;5108812;28;20054;-79
2022/01/17 11:34:48;;;;;;;;;;;;;;;6.28;100.00;103451.66;5109924;28;20006;-77
2022/01/17 11:37:13;;;;;;;;;;;;;;;6.35;100.00;103451.44;5092094;27;20010;-79
2022/01/17 11:39:46;;;;;;;;;;;;;;;6.41;100.00;103451.94;5108880;27;19954;-77
2022/01/17 11:42:30;;;;;;;;;;;;;;;6.56;100.00;103459.16;5107797;28;20018;-76
2022/01/17 11:44:55;;;;;;;;;;;;;;;6.71;100.00;103456.25;5108395;28;19924;-78
2022/01/17 11:47:39;;;;;;;;;;;;;;;6.88;100.00;103459.34;5110023;27;19946;-76
2022/01/17 11:50:23;;;;;;;;;;;;;;;6.91;100.00;103473.25;5108077;28;20006;-77
2022/01/17 11:52:48;;;;;;;;;;;;;;;6.96;100.00;103492.44;5090868;28;19967;-75
2022/01/17 11:55:33;;;;;;;;;;;;;;;6.96;100.00;103492.44;5091849;28;19959;-76
2022/01/17 11:58:19;;;;;;;;;;;;;;;7.02;100.00;103491.19;5106453;28;21427;-76
2022/01/17 12:00:45;;;;;;;;;;;;;;;7.08;100.00;103496.81;5104053;28;19959;-76
2022/01/17 12:03:21;;;;;;;;;;;;;;;7.07;100.00;103495.94;5108283;28;19924;-76
2022/01/17 12:05:47;;;;;;;;;;;;;;;7.08;100.00;103501.94;5115821;27;20505;-75
2022/01/17 12:08:22;;;;;;;;;;;;;;;7.05;100.00;103494.03;5097065;27;19916;-76
2022/01/17 12:10:53;;;;;;;;;;;;;;;7.01;100.00;103500.53;5112075;27;20014;-74
2022/01/17 12:13:20;;;;;;;;;;;;;;;7.02;100.00;103488.63;5109461;27;19920;-75
2022/01/17 12:15:55;;;;;;;;;;;;;;;7.06;100.00;103488.13;5112246;27;19922;-76
2022/01/17 12:18:32;;;;;;;;;;;;;;;7.07;100.00;103469.44;5109214;27;19927;-75
2022/01/17 12:21:15;;;;;;;;;;;;;;;7.09;100.00;103450.88;5098774;27;19981;-75
2022/01/17 12:23:41;;;;;;;;;;;;;;;7.10;100.00;103457.81;5111475;27;20355;-76
2022/01/17 12:26:27;;;;;;;;;;;;;;;7.09;100.00;103450.88;5112327;27;20019;-76
2022/01/17 12:28:54;;;;;;;;;;;;;;;7.15;100.00;103474.44;5092376;27;19930;-75
2022/01/17 12:31:41;;;;;;;;;;;;;;;7.16;100.00;103499.28;5115668;27;19930;-76
2022/01/17 12:34:27;;;;;;;;;;;;;;;7.13;100.00;103506.69;5110737;27;20343;-76
2022/01/17 12:36:53;;;;;;;;;;;;;;;7.14;100.00;103502.44;5106352;28;19926;-76
2022/01/17 12:39:18;;;;;;;;;;;;;;;7.15;100.00;103496.56;5091736;28;19946;-76
2022/01/17 12:41:45;;;;;;;;;;;;;;;7.17;100.00;103500.16;5110783;27;19920;-76
2022/01/17 12:44:18;;;;;;;;;;;;;;;7.20;100.00;103505.53;5103415;27;19928;-76
2022/01/17 12:46:45;;;;;;;;;;;;;;;7.23;100.00;103523.72;5090007;27;20006;-76
2022/01/17 12:49:11;;;;;;;;;;;;;;;7.30;100.00;103491.84;5092406;27;19938;-76
2022/01/17 12:51:40;;;;;;;;;;;;;;;7.39;100.00;103474.66;5110499;27;19939;-76
2022/01/17 12:54:10;;;;;;;;;;;;;;;7.44;100.00;103458.03;5112034;27;20386;-77
2022/01/17 12:56:35;;;;;;;;;;;;;;;7.54;100.00;103465.69;5092373;27;19972;-76
2022/01/17 12:59:02;;;;;;;;;;;;;;;7.64;100.00;103462.22;5094724;27;19916;-76
2022/01/17 13:01:27;;;;;;;;;;;;;;;7.67;100.00;103455.69;5072651;28;19924;-76
2022/01/17 13:03:52;;;;;;;;;;;;;;;7.75;100.00;103454.63;5112215;27;19930;-77
2022/01/17 13:06:18;;;;;;;;;;;;;;;7.86;100.00;103468.31;5110536;27;19926;-76
2022/01/17 13:08:44;;;;;;;;;;;;;;;7.93;100.00;103468.03;5089326;28;20010;-76
2022/01/17 13:11:11;;;;;;;;;;;;;;;8.01;100.00;103460.97;5109235;27;19923;-76
2022/01/17 13:13:43;;;;;;;;;;;;;;;8.05;100.00;103474.13;5105721;28;19947;-77